createdAt,value
2019-03-04T00:00:32.856Z,10.04
2019-03-04T00:01:32.856Z,10.07
2019-03-04T00:02:32.838Z,10.04
2019-03-04T00:03:32.818Z,10.06
2019-03-04T00:04:32.846Z,10.04
2019-03-04T00:05:32.825Z,10.06
2019-03-04T00:06:32.827Z,10.06
2019-03-04T00:07:32.827Z,10.07
2019-03-04T00:08:33.105Z,10.07
2019-03-04T00:09:32.851Z,10.07
2019-03-04T00:10:32.807Z,10.11
2019-03-04T00:11:32.813Z,10.11
2019-03-04T00:12:32.813Z,10.13
2019-03-04T00:13:32.819Z,10.14
2019-03-04T00:14:32.814Z,10.16
2019-03-04T00:15:32.822Z,10.1
2019-03-04T00:16:32.821Z,10.09
2019-03-04T00:17:32.881Z,10.09
2019-03-04T00:18:32.867Z,10.1
2019-03-04T00:19:32.931Z,10.09
2019-03-04T00:20:32.788Z,10.09
2019-03-04T00:21:32.831Z,10.07
2019-03-04T00:22:32.810Z,10.07
2019-03-04T00:23:32.803Z,10.07
2019-03-04T00:24:32.806Z,10.09
2019-03-04T00:25:32.800Z,10.09
2019-03-04T00:26:32.824Z,10.1
2019-03-04T00:27:32.779Z,10.07
2019-03-04T00:28:32.797Z,10.1
2019-03-04T00:29:32.804Z,10.1
2019-03-04T00:30:32.782Z,10.11
2019-03-04T00:31:32.795Z,10.11
2019-03-04T00:32:32.777Z,10.13
2019-03-04T00:33:32.777Z,10.13
2019-03-04T00:34:32.807Z,10.14
2019-03-04T00:35:32.788Z,10.16
2019-03-04T00:36:32.782Z,10.17
2019-03-04T00:37:32.798Z,10.19
2019-03-04T00:38:32.786Z,10.23
2019-03-04T00:39:32.802Z,10.23
2019-03-04T00:40:32.770Z,10.23
2019-03-04T00:41:32.810Z,10.24
2019-03-04T00:42:32.766Z,10.25
2019-03-04T00:43:32.755Z,10.25
2019-03-04T00:44:32.787Z,10.25
2019-03-04T00:45:32.765Z,10.24
2019-03-04T00:46:32.761Z,10.3
2019-03-04T00:47:32.780Z,10.28
2019-03-04T00:48:32.863Z,10.27
2019-03-04T00:49:32.769Z,10.3
2019-03-04T00:50:32.764Z,10.3
2019-03-04T00:51:32.755Z,10.27
2019-03-04T00:52:32.744Z,10.3
2019-03-04T00:53:32.739Z,10.28
2019-03-04T00:54:32.775Z,10.31
2019-03-04T00:55:32.773Z,10.25
2019-03-04T00:56:32.737Z,10.24
2019-03-04T00:57:32.767Z,10.24
2019-03-04T00:58:32.757Z,10.2
2019-03-04T00:59:32.781Z,10.21
2019-03-04T01:00:32.758Z,10.2
2019-03-04T01:01:32.766Z,10.2
2019-03-04T01:02:33.056Z,10.17
2019-03-04T01:03:32.749Z,10.19
2019-03-04T01:04:32.741Z,10.19
2019-03-04T01:05:32.770Z,10.17
2019-03-04T01:06:32.735Z,10.17
2019-03-04T01:07:32.738Z,10.13
2019-03-04T01:08:32.745Z,10.16
2019-03-04T01:09:32.733Z,10.14
2019-03-04T01:10:32.726Z,10.13
2019-03-04T01:11:32.723Z,10.13
2019-03-04T01:12:32.779Z,10.11
2019-03-04T01:13:32.711Z,10.13
2019-03-04T01:14:32.749Z,10.13
2019-03-04T01:15:32.734Z,10.06
2019-03-04T01:16:32.763Z,10.03
2019-03-04T01:17:32.748Z,10.02
2019-03-04T01:18:32.736Z,9.96
2019-03-04T01:19:32.707Z,9.96
2019-03-04T01:20:32.727Z,9.94
2019-03-04T01:21:32.726Z,9.9
2019-03-04T01:22:32.724Z,9.92
2019-03-04T01:23:32.783Z,9.93
2019-03-04T01:24:32.829Z,9.86
2019-03-04T01:25:32.826Z,9.79
2019-03-04T01:26:32.747Z,9.82
2019-03-04T01:27:32.706Z,9.81
2019-03-04T01:28:32.706Z,9.83
2019-03-04T01:29:32.731Z,9.82
2019-03-04T01:30:32.789Z,9.82
2019-03-04T01:31:32.731Z,9.82
2019-03-04T01:32:32.715Z,9.82
2019-03-04T01:33:32.734Z,9.81
2019-03-04T01:34:32.708Z,9.83
2019-03-04T01:35:32.709Z,9.79
2019-03-04T01:36:32.731Z,9.81
2019-03-04T01:37:32.720Z,9.79
2019-03-04T01:38:32.715Z,9.78
2019-03-04T01:39:32.715Z,9.78
2019-03-04T01:40:32.701Z,9.78
2019-03-04T01:41:32.705Z,9.76
2019-03-04T01:42:32.702Z,9.78
2019-03-04T01:43:32.713Z,9.76
2019-03-04T01:44:32.754Z,9.78
2019-03-04T01:45:32.709Z,9.76
2019-03-04T01:46:33.043Z,9.78
2019-03-04T01:47:32.704Z,9.78
2019-03-04T01:48:32.679Z,9.76
2019-03-04T01:49:32.711Z,9.75
2019-03-04T01:50:32.719Z,9.75
2019-03-04T01:51:32.674Z,9.73
2019-03-04T01:52:32.670Z,9.76
2019-03-04T01:53:32.669Z,9.75
2019-03-04T01:54:32.677Z,9.75
2019-03-04T01:55:32.693Z,9.73
2019-03-04T01:56:32.657Z,9.72
2019-03-04T01:57:32.665Z,9.73
2019-03-04T01:58:32.692Z,9.73
2019-03-04T01:59:32.660Z,9.75
2019-03-04T02:00:32.685Z,9.75
2019-03-04T02:01:32.670Z,9.76
2019-03-04T02:02:32.674Z,9.76
2019-03-04T02:03:32.668Z,9.76
2019-03-04T02:04:32.675Z,9.79
2019-03-04T02:05:32.717Z,9.79
2019-03-04T02:06:32.660Z,9.79
2019-03-04T02:07:32.972Z,9.81
2019-03-04T02:08:33.586Z,9.82
2019-03-04T02:09:32.655Z,9.83
2019-03-04T02:10:32.667Z,9.82
2019-03-04T02:11:32.660Z,9.85
2019-03-04T02:12:32.660Z,9.83
2019-03-04T02:13:32.660Z,9.86
2019-03-04T02:14:32.658Z,9.88
2019-03-04T02:15:32.659Z,9.89
2019-03-04T02:16:32.675Z,9.92
2019-03-04T02:17:32.808Z,9.93
2019-03-04T02:18:32.659Z,9.93
2019-03-04T02:19:32.636Z,9.94
2019-03-04T02:20:32.648Z,9.96
2019-03-04T02:21:32.640Z,9.97
2019-03-04T02:22:32.624Z,9.99
2019-03-04T02:23:32.667Z,10.02
2019-03-04T02:24:32.699Z,10.03
2019-03-04T02:25:32.632Z,10.04
2019-03-04T02:26:32.682Z,10.02
2019-03-04T02:27:32.650Z,10.09
2019-03-04T02:28:32.637Z,10.09
2019-03-04T02:29:32.628Z,10.1
2019-03-04T02:30:32.622Z,10.11
2019-03-04T02:31:32.619Z,10.14
2019-03-04T02:32:32.659Z,10.14
2019-03-04T02:33:32.609Z,10.14
2019-03-04T02:34:32.625Z,10.19
2019-03-04T02:35:32.638Z,10.16
2019-03-04T02:36:32.625Z,10.19
2019-03-04T02:37:32.667Z,10.19
2019-03-04T02:38:32.775Z,10.23
2019-03-04T02:39:32.991Z,10.24
2019-03-04T02:40:32.651Z,10.21
2019-03-04T02:41:32.613Z,10.21
2019-03-04T02:42:32.633Z,10.23
2019-03-04T02:43:32.608Z,10.24
2019-03-04T02:44:32.610Z,10.21
2019-03-04T02:45:32.642Z,10.21
2019-03-04T02:46:32.594Z,10.21
2019-03-04T02:47:32.632Z,10.2
2019-03-04T02:48:32.621Z,10.19
2019-03-04T02:49:32.595Z,10.2
2019-03-04T02:50:32.808Z,10.19
2019-03-04T02:51:32.592Z,10.16
2019-03-04T02:52:32.591Z,10.17
2019-03-04T02:53:32.591Z,10.14
2019-03-04T02:54:32.597Z,10.14
2019-03-04T02:55:32.599Z,10.14
2019-03-04T02:56:32.586Z,10.11
2019-03-04T02:57:32.566Z,10.09
2019-03-04T02:58:32.608Z,10.09
2019-03-04T02:59:32.594Z,10.09
2019-03-04T03:00:32.623Z,10.09
2019-03-04T03:01:32.594Z,10.09
2019-03-04T03:02:32.643Z,10.09
2019-03-04T03:03:32.606Z,10.07
2019-03-04T03:04:32.573Z,10.06
2019-03-04T03:05:32.601Z,10.04
2019-03-04T03:06:32.618Z,10.02
2019-03-04T03:07:32.647Z,10.02
2019-03-04T03:08:32.586Z,10
2019-03-04T03:09:32.578Z,9.97
2019-03-04T03:10:32.581Z,9.97
2019-03-04T03:11:32.615Z,9.96
2019-03-04T03:12:32.564Z,9.97
2019-03-04T03:13:32.642Z,9.99
2019-03-04T03:14:32.548Z,9.94
2019-03-04T03:15:32.574Z,9.94
2019-03-04T03:16:32.576Z,9.93
2019-03-04T03:17:32.556Z,9.9
2019-03-04T03:18:32.577Z,9.9
2019-03-04T03:19:32.587Z,9.86
2019-03-04T03:20:32.572Z,9.88
2019-03-04T03:21:32.768Z,9.86
2019-03-04T03:22:33.081Z,9.86
2019-03-04T03:23:32.591Z,9.88
2019-03-04T03:24:32.577Z,9.86
2019-03-04T03:25:32.586Z,9.86
2019-03-04T03:26:32.548Z,9.85
2019-03-04T03:27:32.568Z,9.86
2019-03-04T03:28:32.588Z,9.83
2019-03-04T03:29:32.548Z,9.83
2019-03-04T03:30:32.644Z,9.79
2019-03-04T03:31:32.572Z,9.81
2019-03-04T03:32:32.596Z,9.78
2019-03-04T03:33:32.584Z,9.79
2019-03-04T03:34:32.632Z,9.78
2019-03-04T03:35:32.540Z,9.75
2019-03-04T03:36:32.562Z,9.73
2019-03-04T03:37:32.556Z,9.72
2019-03-04T03:38:32.550Z,9.73
2019-03-04T03:39:32.558Z,9.7
2019-03-04T03:40:32.554Z,9.69
2019-03-04T03:41:32.535Z,9.72
2019-03-04T03:42:32.544Z,9.68
2019-03-04T03:43:32.644Z,9.68
2019-03-04T03:44:32.524Z,9.68
2019-03-04T03:45:32.539Z,9.68
2019-03-04T03:46:32.544Z,9.68
2019-03-04T03:47:32.528Z,9.68
2019-03-04T03:48:32.535Z,9.69
2019-03-04T03:49:32.525Z,9.68
2019-03-04T03:50:32.538Z,9.69
2019-03-04T03:51:32.563Z,9.65
2019-03-04T03:52:32.522Z,9.68
2019-03-04T03:53:32.571Z,9.65
2019-03-04T03:54:32.535Z,9.66
2019-03-04T03:55:32.526Z,9.63
2019-03-04T03:56:32.506Z,9.63
2019-03-04T03:57:32.513Z,9.66
2019-03-04T03:58:32.491Z,9.63
2019-03-04T03:59:32.501Z,9.68
2019-03-04T04:00:32.519Z,9.66
2019-03-04T04:01:32.525Z,9.65
2019-03-04T04:02:32.523Z,9.65
2019-03-04T04:03:32.518Z,9.63
2019-03-04T04:04:32.681Z,9.63
2019-03-04T04:05:32.570Z,9.62
2019-03-04T04:06:32.510Z,9.62
2019-03-04T04:07:32.511Z,9.62
2019-03-04T04:08:32.553Z,9.61
2019-03-04T04:09:32.478Z,9.59
2019-03-04T04:10:32.493Z,9.59
2019-03-04T04:11:32.478Z,9.55
2019-03-04T04:12:32.488Z,9.55
2019-03-04T04:13:32.486Z,9.55
2019-03-04T04:14:32.534Z,9.52
2019-03-04T04:15:32.530Z,9.55
2019-03-04T04:16:32.482Z,9.52
2019-03-04T04:17:32.484Z,9.54
2019-03-04T04:18:32.497Z,9.52
2019-03-04T04:19:32.478Z,9.48
2019-03-04T04:20:32.455Z,9.51
2019-03-04T04:21:32.507Z,9.52
2019-03-04T04:22:32.449Z,9.52
2019-03-04T04:23:32.477Z,9.49
2019-03-04T04:24:32.509Z,9.48
2019-03-04T04:25:32.484Z,9.48
2019-03-04T04:26:32.778Z,9.48
2019-03-04T04:27:32.467Z,9.49
2019-03-04T04:28:32.478Z,9.48
2019-03-04T04:29:32.464Z,9.42
2019-03-04T04:30:32.469Z,9.44
2019-03-04T04:31:32.464Z,9.44
2019-03-04T04:32:32.476Z,9.42
2019-03-04T04:33:32.453Z,9.42
2019-03-04T04:34:32.437Z,9.44
2019-03-04T04:35:32.461Z,9.41
2019-03-04T04:36:32.442Z,9.4
2019-03-04T04:37:32.466Z,9.38
2019-03-04T04:38:32.509Z,9.41
2019-03-04T04:39:32.479Z,9.4
2019-03-04T04:40:32.438Z,9.37
2019-03-04T04:41:32.455Z,9.34
2019-03-04T04:42:32.476Z,9.35
2019-03-04T04:43:32.452Z,9.34
2019-03-04T04:44:32.431Z,9.34
2019-03-04T04:45:32.451Z,9.33
2019-03-04T04:46:32.432Z,9.35
2019-03-04T04:47:32.426Z,9.34
2019-03-04T04:48:32.890Z,9.34
2019-03-04T04:49:32.456Z,9.38
2019-03-04T04:50:32.450Z,9.37
2019-03-04T04:51:32.429Z,9.38
2019-03-04T04:52:32.466Z,9.4
2019-03-04T04:53:32.424Z,9.4
2019-03-04T04:54:32.434Z,9.38
2019-03-04T04:55:32.413Z,9.41
2019-03-04T04:56:32.422Z,9.42
2019-03-04T04:57:32.435Z,9.38
2019-03-04T04:58:32.419Z,9.41
2019-03-04T04:59:32.448Z,9.41
2019-03-04T05:00:32.499Z,9.41
2019-03-04T05:01:32.430Z,9.42
2019-03-04T05:02:32.478Z,9.41
2019-03-04T05:03:32.484Z,9.42
2019-03-04T05:04:32.446Z,9.38
2019-03-04T05:05:32.421Z,9.37
2019-03-04T05:06:32.427Z,9.38
2019-03-04T05:07:32.410Z,9.37
2019-03-04T05:08:32.419Z,9.37
2019-03-04T05:09:32.547Z,9.38
2019-03-04T05:10:32.613Z,9.35
2019-03-04T05:11:32.461Z,9.37
2019-03-04T05:12:32.421Z,9.34
2019-03-04T05:13:32.433Z,9.35
2019-03-04T05:14:32.428Z,9.3
2019-03-04T05:15:32.443Z,9.3
2019-03-04T05:16:32.475Z,9.29
2019-03-04T05:17:32.411Z,9.27
2019-03-04T05:18:32.412Z,9.29
2019-03-04T05:19:32.414Z,9.27
2019-03-04T05:20:32.401Z,9.26
2019-03-04T05:21:32.387Z,9.27
2019-03-04T05:22:32.412Z,9.26
2019-03-04T05:23:32.421Z,9.23
2019-03-04T05:24:32.423Z,9.26
2019-03-04T05:25:32.402Z,9.19
2019-03-04T05:26:32.409Z,9.2
2019-03-04T05:27:32.414Z,9.21
2019-03-04T05:28:32.413Z,9.23
2019-03-04T05:29:32.384Z,9.23
2019-03-04T05:30:32.522Z,9.24
2019-03-04T05:31:32.395Z,9.26
2019-03-04T05:32:32.381Z,9.24
2019-03-04T05:33:32.408Z,9.26
2019-03-04T05:34:32.364Z,9.26
2019-03-04T05:35:32.368Z,9.27
2019-03-04T05:36:32.383Z,9.3
2019-03-04T05:37:32.418Z,9.29
2019-03-04T05:38:32.383Z,9.27
2019-03-04T05:39:32.390Z,9.26
2019-03-04T05:40:32.399Z,9.29
2019-03-04T05:41:32.367Z,9.26
2019-03-04T05:42:32.360Z,9.24
2019-03-04T05:43:32.379Z,9.24
2019-03-04T05:44:32.359Z,9.23
2019-03-04T05:45:32.402Z,9.24
2019-03-04T05:46:32.341Z,9.26
2019-03-04T05:47:32.367Z,9.24
2019-03-04T05:48:32.389Z,9.24
2019-03-04T05:49:32.378Z,9.23
2019-03-04T05:50:32.366Z,9.2
2019-03-04T05:51:32.360Z,9.19
2019-03-04T05:52:32.336Z,9.21
2019-03-04T05:53:32.495Z,9.23
2019-03-04T05:54:33.159Z,9.24
2019-03-04T05:55:32.394Z,9.24
2019-03-04T05:56:32.337Z,9.24
2019-03-04T05:57:32.362Z,9.23
2019-03-04T05:58:32.368Z,9.24
2019-03-04T05:59:33.283Z,9.23
2019-03-04T06:00:32.385Z,9.24
2019-03-04T06:01:32.370Z,9.21
2019-03-04T06:02:32.351Z,9.2
2019-03-04T06:03:32.326Z,9.14
2019-03-04T06:04:32.355Z,9.19
2019-03-04T06:05:32.345Z,9.19
2019-03-04T06:06:32.331Z,9.19
2019-03-04T06:07:32.318Z,9.19
2019-03-04T06:08:32.356Z,9.19
2019-03-04T06:09:32.355Z,9.2
2019-03-04T06:10:32.332Z,9.23
2019-03-04T06:11:32.323Z,9.23
2019-03-04T06:12:32.397Z,9.2
2019-03-04T06:13:32.338Z,9.23
2019-03-04T06:14:32.319Z,9.21
2019-03-04T06:15:32.383Z,9.23
2019-03-04T06:16:32.658Z,9.23
2019-03-04T06:17:32.326Z,9.2
2019-03-04T06:18:32.331Z,9.2
2019-03-04T06:19:32.311Z,9.24
2019-03-04T06:20:32.303Z,9.24
2019-03-04T06:21:32.333Z,9.21
2019-03-04T06:22:32.309Z,9.19
2019-03-04T06:23:32.295Z,9.21
2019-03-04T06:24:32.425Z,9.2
2019-03-04T06:25:32.301Z,9.23
2019-03-04T06:26:32.322Z,9.24
2019-03-04T06:27:32.310Z,9.23
2019-03-04T06:28:32.302Z,9.27
2019-03-04T06:29:32.313Z,9.27
2019-03-04T06:30:32.347Z,9.27
2019-03-04T06:31:32.276Z,9.27
2019-03-04T06:32:32.298Z,9.3
2019-03-04T06:33:32.281Z,9.3
2019-03-04T06:34:32.275Z,9.31
2019-03-04T06:35:32.316Z,9.31
2019-03-04T06:36:32.306Z,9.3
2019-03-04T06:37:32.405Z,9.3
2019-03-04T06:38:32.299Z,9.29
2019-03-04T06:39:32.292Z,9.26
2019-03-04T06:40:32.305Z,9.31
2019-03-04T06:41:32.315Z,9.29
2019-03-04T06:42:32.288Z,9.27
2019-03-04T06:43:32.268Z,9.29
2019-03-04T06:44:32.275Z,9.31
2019-03-04T06:45:32.299Z,9.29
2019-03-04T06:46:32.287Z,9.34
2019-03-04T06:47:32.266Z,9.35
2019-03-04T06:48:32.267Z,9.37
2019-03-04T06:49:32.274Z,9.42
2019-03-04T06:50:32.273Z,9.47
2019-03-04T06:51:32.255Z,9.44
2019-03-04T06:52:32.359Z,9.49
2019-03-04T06:53:32.278Z,9.49
2019-03-04T06:54:32.285Z,9.63
2019-03-04T06:55:32.261Z,9.68
2019-03-04T06:56:32.253Z,9.7
2019-03-04T06:57:32.238Z,9.89
2019-03-04T06:58:32.261Z,9.83
2019-03-04T06:59:32.571Z,9.93
2019-03-04T07:00:32.264Z,9.93
2019-03-04T07:01:32.253Z,9.99
2019-03-04T07:02:32.239Z,10
2019-03-04T07:03:33.145Z,9.99
2019-03-04T07:04:32.240Z,10.09
2019-03-04T07:05:32.256Z,10.11
2019-03-04T07:06:32.234Z,10.23
2019-03-04T07:07:32.225Z,10.39
2019-03-04T07:08:32.224Z,10.41
2019-03-04T07:09:32.231Z,10.71
2019-03-04T07:10:33.195Z,10.82
2019-03-04T07:11:32.252Z,10.97
2019-03-04T07:12:32.285Z,11.03
2019-03-04T07:13:32.276Z,11.01
2019-03-04T07:14:32.246Z,11.17
2019-03-04T07:15:32.209Z,11.21
2019-03-04T07:16:32.402Z,11.39
2019-03-04T07:17:32.248Z,11.52
2019-03-04T07:18:32.242Z,11.75
2019-03-04T07:19:32.222Z,11.82
2019-03-04T07:20:32.273Z,11.83
2019-03-04T07:21:32.420Z,11.79
2019-03-04T07:22:32.225Z,11.84
2019-03-04T07:23:32.241Z,11.97
2019-03-04T07:24:32.222Z,12.13
2019-03-04T07:25:32.222Z,12.14
2019-03-04T07:26:32.231Z,12.2
2019-03-04T07:27:32.263Z,12.27
2019-03-04T07:28:32.234Z,12.28
2019-03-04T07:29:32.227Z,12.48
2019-03-04T07:30:32.211Z,12.42
2019-03-04T07:31:32.230Z,12.34
2019-03-04T07:32:32.224Z,12.31
2019-03-04T07:33:32.241Z,12.29
2019-03-04T07:34:34.221Z,12.38
2019-03-04T07:35:32.195Z,12.42
2019-03-04T07:36:32.200Z,12.39
2019-03-04T07:37:32.199Z,12.25
2019-03-04T07:38:32.201Z,12.21
2019-03-04T07:39:32.175Z,12.2
2019-03-04T07:40:32.231Z,12.18
2019-03-04T07:41:32.182Z,12.17
2019-03-04T07:42:32.235Z,12.18
2019-03-04T07:43:32.199Z,12.18
2019-03-04T07:44:32.170Z,12.27
2019-03-04T07:45:32.188Z,12.25
2019-03-04T07:46:32.193Z,12.25
2019-03-04T07:47:32.201Z,12.23
2019-03-04T07:48:32.206Z,12.2
2019-03-04T07:49:32.302Z,12.17
2019-03-04T07:50:32.183Z,12.1
2019-03-04T07:51:32.177Z,12.11
2019-03-04T07:52:32.197Z,12.14
2019-03-04T07:53:32.168Z,12.16
2019-03-04T07:54:32.196Z,12.11
2019-03-04T07:55:32.231Z,12.11
2019-03-04T07:56:32.174Z,12.16
2019-03-04T07:57:32.165Z,12.16
2019-03-04T07:58:32.198Z,12.21
2019-03-04T07:59:32.184Z,12.24
2019-03-04T08:00:32.217Z,12.2
2019-03-04T08:01:32.190Z,12.23
2019-03-04T08:02:32.196Z,12.21
2019-03-04T08:03:32.286Z,12.29
2019-03-04T08:04:32.388Z,12.34
2019-03-04T08:05:32.168Z,12.31
2019-03-04T08:06:32.174Z,12.29
2019-03-04T08:07:32.281Z,12.27
2019-03-04T08:08:32.166Z,12.21
2019-03-04T08:09:32.140Z,12.21
2019-03-04T08:10:32.137Z,12.25
2019-03-04T08:11:32.158Z,12.31
2019-03-04T08:12:32.134Z,12.27
2019-03-04T08:13:32.143Z,12.27
2019-03-04T08:14:32.168Z,12.29
2019-03-04T08:15:32.167Z,12.24
2019-03-04T08:16:32.130Z,12.25
2019-03-04T08:17:32.140Z,12.29
2019-03-04T08:18:32.209Z,12.32
2019-03-04T08:19:32.158Z,12.35
2019-03-04T08:20:32.134Z,12.32
2019-03-04T08:21:32.116Z,12.35
2019-03-04T08:22:32.121Z,12.32
2019-03-04T08:23:32.188Z,12.25
2019-03-04T08:24:32.140Z,12.25
2019-03-04T08:25:32.148Z,12.31
2019-03-04T08:26:32.436Z,12.31
2019-03-04T08:27:32.202Z,12.24
2019-03-04T08:28:32.135Z,12.24
2019-03-04T08:29:32.123Z,12.2
2019-03-04T08:30:32.148Z,12.14
2019-03-04T08:31:32.136Z,12.17
2019-03-04T08:32:32.109Z,12.16
2019-03-04T08:33:32.110Z,12.16
2019-03-04T08:34:32.113Z,12.17
2019-03-04T08:35:32.135Z,12.17
2019-03-04T08:36:32.125Z,12.16
2019-03-04T08:37:32.117Z,12.17
2019-03-04T08:38:32.097Z,12.2
2019-03-04T08:39:32.163Z,12.21
2019-03-04T08:40:32.121Z,12.16
2019-03-04T08:41:32.129Z,12.13
2019-03-04T08:42:32.149Z,12.1
2019-03-04T08:43:32.173Z,12.08
2019-03-04T08:44:32.116Z,12.08
2019-03-04T08:45:32.144Z,12.1
2019-03-04T08:46:32.099Z,12.11
2019-03-04T08:47:32.098Z,12.1
2019-03-04T08:48:32.132Z,12.14
2019-03-04T08:49:32.090Z,12.1
2019-03-04T08:50:32.136Z,12.08
2019-03-04T08:51:32.132Z,12.14
2019-03-04T08:52:32.116Z,12.1
2019-03-04T08:53:32.125Z,12.1
2019-03-04T08:54:32.093Z,12.08
2019-03-04T08:55:32.107Z,12.08
2019-03-04T08:56:32.135Z,12.07
2019-03-04T08:57:32.088Z,12.05
2019-03-04T08:58:34.647Z,12.04
2019-03-04T08:59:32.090Z,12.04
2019-03-04T09:00:32.086Z,12.01
2019-03-04T09:01:32.093Z,12.01
2019-03-04T09:02:32.072Z,12
2019-03-04T09:03:32.087Z,12.01
2019-03-04T09:04:32.100Z,11.98
2019-03-04T09:05:32.246Z,11.97
2019-03-04T09:06:32.121Z,11.96
2019-03-04T09:07:32.098Z,11.97
2019-03-04T09:08:32.119Z,11.97
2019-03-04T09:09:32.081Z,11.97
2019-03-04T09:10:32.241Z,12
2019-03-04T09:11:32.061Z,11.96
2019-03-04T09:12:32.079Z,11.96
2019-03-04T09:13:32.095Z,11.97
2019-03-04T09:14:32.093Z,11.96
2019-03-04T09:15:32.055Z,11.96
2019-03-04T09:16:32.051Z,11.94
2019-03-04T09:17:32.150Z,11.97
2019-03-04T09:18:32.306Z,11.97
2019-03-04T09:19:32.105Z,11.96
2019-03-04T09:20:32.079Z,11.96
2019-03-04T09:21:32.083Z,11.94
2019-03-04T09:22:32.054Z,11.93
2019-03-04T09:23:32.092Z,11.93
2019-03-04T09:24:32.056Z,11.92
2019-03-04T09:25:32.046Z,11.92
2019-03-04T09:26:32.096Z,11.92
2019-03-04T09:27:32.052Z,11.92
2019-03-04T09:28:32.047Z,11.93
2019-03-04T09:29:32.056Z,11.92
2019-03-04T09:30:32.070Z,11.94
2019-03-04T09:31:32.072Z,11.92
2019-03-04T09:32:32.062Z,11.93
2019-03-04T09:33:32.031Z,11.93
2019-03-04T09:34:32.035Z,11.94
2019-03-04T09:35:32.945Z,11.92
2019-03-04T09:36:32.126Z,11.96
2019-03-04T09:37:32.049Z,11.94
2019-03-04T09:38:32.121Z,11.98
2019-03-04T09:39:32.053Z,11.98
2019-03-04T09:40:32.036Z,11.98
2019-03-04T09:41:32.119Z,12
2019-03-04T09:42:32.040Z,12
2019-03-04T09:43:32.030Z,11.97
2019-03-04T09:44:32.053Z,11.97
2019-03-04T09:45:39.554Z,11.97
2019-03-04T09:46:32.013Z,11.97
2019-03-04T09:47:32.044Z,11.98
2019-03-04T09:48:32.051Z,11.97
2019-03-04T09:49:32.050Z,12
2019-03-04T09:50:32.046Z,12.04
2019-03-04T09:51:32.011Z,12.04
2019-03-04T09:52:32.054Z,12.05
2019-03-04T09:53:39.981Z,12.07
2019-03-04T09:54:32.300Z,12.05
2019-03-04T09:55:32.513Z,12.07
2019-03-04T09:56:32.016Z,12.1
2019-03-04T09:57:32.017Z,12.16
2019-03-04T09:58:31.993Z,12.16
2019-03-04T09:59:32.023Z,12.17
2019-03-04T10:00:32.019Z,12.18
2019-03-04T10:01:32.033Z,12.23
2019-03-04T10:02:32.020Z,12.28
2019-03-04T10:03:32.007Z,12.41
2019-03-04T10:04:32.003Z,12.53
2019-03-04T10:05:31.991Z,12.6
2019-03-04T10:06:32.001Z,12.67
2019-03-04T10:07:31.983Z,12.8
2019-03-04T10:08:33.266Z,12.84
2019-03-04T10:09:31.973Z,12.94
2019-03-04T10:10:31.991Z,12.94
2019-03-04T10:11:31.978Z,12.99
2019-03-04T10:12:31.978Z,12.99
2019-03-04T10:13:31.994Z,12.97
2019-03-04T10:14:31.977Z,12.97
2019-03-04T10:15:32.005Z,12.99
2019-03-04T10:16:32.034Z,12.97
2019-03-04T10:17:32.000Z,12.9
2019-03-04T10:18:32.000Z,12.87
2019-03-04T10:19:32.063Z,12.83
2019-03-04T10:20:31.995Z,12.82
2019-03-04T10:21:31.985Z,12.77
2019-03-04T10:22:31.983Z,12.77
2019-03-04T10:23:31.982Z,12.72
2019-03-04T10:24:31.985Z,12.72
2019-03-04T10:25:32.034Z,12.67
2019-03-04T10:26:31.989Z,12.62
2019-03-04T10:27:31.980Z,12.59
2019-03-04T10:28:31.947Z,12.57
2019-03-04T10:29:32.186Z,12.53
2019-03-04T10:30:31.955Z,12.52
2019-03-04T10:31:31.974Z,12.53
2019-03-04T10:32:31.989Z,12.49
2019-03-04T10:33:31.974Z,12.51
2019-03-04T10:34:32.234Z,12.52
2019-03-04T10:35:31.946Z,12.48
2019-03-04T10:36:32.083Z,12.48
2019-03-04T10:37:31.949Z,12.49
2019-03-04T10:38:32.119Z,12.41
2019-03-04T10:39:32.035Z,12.37
2019-03-04T10:40:34.656Z,12.24
2019-03-04T10:41:31.990Z,12.23
2019-03-04T10:42:31.928Z,12.17
2019-03-04T10:43:31.985Z,12.16
2019-03-04T10:44:38.158Z,12.14
2019-03-04T10:45:31.982Z,12.14
2019-03-04T10:46:31.943Z,12.14
2019-03-04T10:47:31.951Z,12.14
2019-03-04T10:48:31.940Z,12.11
2019-03-04T10:49:32.011Z,12.11
2019-03-04T10:50:31.922Z,12.13
2019-03-04T10:51:31.950Z,12.1
2019-03-04T10:52:31.960Z,12.11
2019-03-04T10:53:31.936Z,12.1
2019-03-04T10:54:32.083Z,12.1
2019-03-04T10:55:42.572Z,12.08
2019-03-04T10:56:31.942Z,12.1
2019-03-04T10:57:31.930Z,12.08
2019-03-04T10:58:31.942Z,12.05
2019-03-04T10:59:31.931Z,12.01
2019-03-04T11:00:31.929Z,11.97
2019-03-04T11:01:32.284Z,11.98
2019-03-04T11:02:31.911Z,11.94
2019-03-04T11:03:31.912Z,11.92
2019-03-04T11:04:31.972Z,11.87
2019-03-04T11:05:31.956Z,11.87
2019-03-04T11:06:31.899Z,11.86
2019-03-04T11:07:31.998Z,11.82
2019-03-04T11:08:31.909Z,11.8
2019-03-04T11:09:31.945Z,11.82
2019-03-04T11:10:31.931Z,11.75
2019-03-04T11:11:31.896Z,11.75
2019-03-04T11:12:31.911Z,11.75
2019-03-04T11:13:31.924Z,11.77
2019-03-04T11:14:31.959Z,11.83
2019-03-04T11:15:31.933Z,11.86
2019-03-04T11:16:31.931Z,11.92
2019-03-04T11:17:31.921Z,11.9
2019-03-04T11:18:31.929Z,11.9
2019-03-04T11:19:31.891Z,11.9
2019-03-04T11:20:31.978Z,11.92
2019-03-04T11:21:31.903Z,11.96
2019-03-04T11:22:32.436Z,11.97
2019-03-04T11:23:32.492Z,12
2019-03-04T11:24:32.005Z,11.93
2019-03-04T11:25:31.911Z,11.96
2019-03-04T11:26:31.890Z,11.97
2019-03-04T11:27:31.960Z,11.98
2019-03-04T11:28:31.895Z,11.96
2019-03-04T11:29:31.894Z,11.92
2019-03-04T11:30:31.917Z,11.89
2019-03-04T11:31:31.889Z,11.92
2019-03-04T11:32:31.881Z,11.94
2019-03-04T11:33:31.885Z,11.96
2019-03-04T11:34:31.889Z,12.04
2019-03-04T11:35:31.908Z,12.04
2019-03-04T11:36:31.915Z,12.05
2019-03-04T11:37:31.947Z,12.04
2019-03-04T11:38:31.884Z,12.01
2019-03-04T11:39:31.896Z,12.01
2019-03-04T11:40:31.988Z,12.04
2019-03-04T11:41:31.886Z,12.11
2019-03-04T11:42:31.888Z,12.11
2019-03-04T11:43:31.929Z,12.1
2019-03-04T11:44:31.950Z,12.03
2019-03-04T11:45:31.941Z,11.97
2019-03-04T11:46:31.930Z,11.94
2019-03-04T11:47:31.885Z,11.93
2019-03-04T11:48:31.871Z,11.93
2019-03-04T11:49:31.889Z,11.92
2019-03-04T11:50:31.955Z,11.89
2019-03-04T11:51:31.984Z,11.83
2019-03-04T11:52:31.876Z,11.84
2019-03-04T11:53:31.856Z,11.87
2019-03-04T11:54:31.953Z,11.82
2019-03-04T11:55:31.862Z,11.92
2019-03-04T11:56:31.861Z,11.93
2019-03-04T11:57:31.886Z,11.9
2019-03-04T11:58:31.923Z,11.89
2019-03-04T11:59:31.842Z,11.82
2019-03-04T12:00:31.868Z,11.83
2019-03-04T12:01:31.864Z,11.84
2019-03-04T12:02:39.406Z,11.89
2019-03-04T12:03:31.842Z,11.96
2019-03-04T12:04:31.841Z,12
2019-03-04T12:05:31.877Z,12.1
2019-03-04T12:06:31.853Z,12.23
2019-03-04T12:07:31.849Z,12.28
2019-03-04T12:08:31.874Z,12.31
2019-03-04T12:09:31.860Z,12.37
2019-03-04T12:10:31.834Z,12.37
2019-03-04T12:11:38.617Z,12.34
2019-03-04T12:12:31.838Z,12.32
2019-03-04T12:13:31.826Z,12.28
2019-03-04T12:14:31.826Z,12.27
2019-03-04T12:15:31.835Z,12.24
2019-03-04T12:16:31.834Z,12.2
2019-03-04T12:17:31.817Z,12.11
2019-03-04T12:18:31.833Z,12.14
2019-03-04T12:19:31.831Z,12.17
2019-03-04T12:20:31.854Z,12.14
2019-03-04T12:21:31.821Z,12.13
2019-03-04T12:22:31.820Z,12.14
2019-03-04T12:23:31.838Z,12.08
2019-03-04T12:24:31.810Z,12.13
2019-03-04T12:25:31.847Z,12.1
2019-03-04T12:26:31.823Z,12.11
2019-03-04T12:27:31.805Z,12.14
2019-03-04T12:28:31.992Z,12.13
2019-03-04T12:29:31.819Z,12.14
2019-03-04T12:30:31.825Z,12.14
2019-03-04T12:31:31.829Z,12.21
2019-03-04T12:32:31.874Z,12.24
2019-03-04T12:33:31.847Z,12.28
2019-03-04T12:34:31.842Z,12.32
2019-03-04T12:35:31.925Z,12.32
2019-03-04T12:36:31.876Z,12.35
2019-03-04T12:37:31.870Z,12.41
2019-03-04T12:38:31.867Z,12.52
2019-03-04T12:39:31.811Z,12.65
2019-03-04T12:40:31.823Z,12.72
2019-03-04T12:41:31.779Z,12.76
2019-03-04T12:42:31.841Z,12.72
2019-03-04T12:43:31.817Z,12.7
2019-03-04T12:44:31.782Z,12.66
2019-03-04T12:45:34.928Z,12.63
2019-03-04T12:46:31.808Z,12.6
2019-03-04T12:47:31.799Z,12.59
2019-03-04T12:48:31.866Z,12.6
2019-03-04T12:49:31.800Z,12.56
2019-03-04T12:50:31.884Z,12.52
2019-03-04T12:51:31.787Z,12.48
2019-03-04T12:52:31.830Z,12.42
2019-03-04T12:53:37.740Z,12.39
2019-03-04T12:54:31.786Z,12.35
2019-03-04T12:55:31.799Z,12.34
2019-03-04T12:56:31.804Z,12.32
2019-03-04T12:57:31.810Z,12.32
2019-03-04T12:58:31.782Z,12.29
2019-03-04T12:59:31.785Z,12.29
2019-03-04T13:00:31.827Z,12.27
2019-03-04T13:01:31.762Z,12.27
2019-03-04T13:02:31.780Z,12.25
2019-03-04T13:03:31.810Z,12.23
2019-03-04T13:04:31.787Z,12.27
2019-03-04T13:05:31.779Z,12.27